Forside
METAR-TAF:

METAR-TAF

Lufthavne :

New Richmond Regional Airport

New Richmond, Wisconsin, USA

Breddekreds: 45-08-54N, længdekreds: 092-32-17W, højde: 304 m

Aktuelle vejr

Denne rapport blev lavet for 34 minutter siden, kl. 01:55 UTC
Vind 3 kt fra vestnordvest
Temperatur 13°C
Fugtighed 54%
Tryk 1014 hPa
Sigt: 16.1 km
Spredte skyer i en højde af 8000 ft

METAR: KRNH 220155Z AUTO 29003KT 10SM SCT080 13/04 A2993 RMK AO2 T01310039

Tid: 21:29 (02:29 UTC)

Vejrudsigter

Denne rapport blev lavet for 3 timer og 9 minutter siden, kl. 23:20 UTC
Foreløbig gælder fra 22 på 00 UTC til 22 på 24 UTC
Vind 8 kt fra nordvest
Sigt: 10 km
Brudte skyer i en højde af 8000 ft
Fra 22 på 0300 UTC
Vind 3 kt fra varierende retninger
Sigt: 10 km
skyfri
Fra 22 på 1700 UTC
Vind 5 kt fra sydvest
Sigt: 10 km
Nogle få skyer i en højde af 15000 ft

TAF: KRNH 212320Z 2200/2224 32008KT P6SM BKN080 FM220300 VRB03KT P6SM SKC FM221700 22005KT P6SM FEW150

Vejrobservationer og prognoser fra mere end 4000 lufthavne (METAR og TAF).

De gule og røde prikker repræsenterer de meteorologiske stationer.

Flyt musen over at se navnet på stationen.

Så klik over at se vejr observationer og prognoser.

At skifte det kort: Klik på de grønne knapper med et sort kors for at zoome ind; på den grønne knap med en bindestreg for at zoome ud; eller på de grønne pile for tilstødende kort.


METAR-TAF: